createdAt,value
2022-08-20T00:01:12.257Z,22.15
2022-08-20T00:03:44.812Z,22.09
2022-08-20T00:06:23.741Z,22.16
2022-08-20T00:08:51.629Z,22.20
2022-08-20T00:11:24.414Z,22.20
2022-08-20T00:13:58.107Z,22.12
2022-08-20T00:16:26.925Z,22.17
2022-08-20T00:18:54.273Z,22.14
2022-08-20T00:21:23.188Z,22.10
2022-08-20T00:23:52.722Z,22.09
2022-08-20T00:26:20.683Z,22.06
2022-08-20T00:28:48.142Z,22.07
2022-08-20T00:31:19.707Z,22.04
2022-08-20T00:33:47.929Z,22.03
2022-08-20T00:36:17.632Z,22.04
2022-08-20T00:38:46.597Z,22.00
2022-08-20T00:41:25.942Z,22.05
2022-08-20T00:44:21.905Z,22.08
2022-08-20T00:46:51.053Z,22.06
2022-08-20T00:49:24.755Z,22.01
2022-08-20T00:52:12.954Z,21.94
2022-08-20T00:54:51.744Z,21.90
2022-08-20T00:57:25.000Z,21.92
2022-08-20T00:59:53.322Z,21.88
2022-08-20T01:02:25.438Z,21.88
2022-08-20T01:04:55.053Z,21.90
2022-08-20T01:07:35.630Z,21.90
2022-08-20T01:10:19.256Z,21.91
2022-08-20T01:12:48.225Z,21.88
2022-08-20T01:15:30.747Z,21.91
2022-08-20T01:18:01.849Z,21.95
2022-08-20T01:20:37.348Z,21.95
2022-08-20T01:23:34.741Z,21.93
2022-08-20T01:26:21.308Z,21.91
2022-08-20T01:28:58.597Z,21.91
2022-08-20T01:31:33.662Z,21.88
2022-08-20T01:34:04.295Z,21.85
2022-08-20T01:36:45.549Z,21.83
2022-08-20T01:39:18.924Z,21.82
2022-08-20T01:41:51.865Z,21.83
2022-08-20T01:44:20.930Z,21.82
2022-08-20T01:46:52.573Z,21.82
2022-08-20T01:49:34.863Z,21.81
2022-08-20T01:52:08.869Z,21.79
2022-08-20T01:54:36.042Z,21.77
2022-08-20T01:57:17.853Z,21.75
2022-08-20T02:00:19.707Z,21.76
2022-08-20T02:03:08.655Z,21.73
2022-08-20T02:05:36.190Z,21.71
2022-08-20T02:08:03.977Z,21.73
2022-08-20T02:10:32.350Z,21.70
2022-08-20T02:13:00.663Z,21.69
2022-08-20T02:15:34.526Z,21.71
2022-08-20T02:18:13.126Z,21.68
2022-08-20T02:20:41.765Z,21.68
2022-08-20T02:23:12.177Z,21.68
2022-08-20T02:25:43.548Z,21.66
2022-08-20T02:28:14.677Z,21.63
2022-08-20T02:30:48.495Z,21.57
2022-08-20T02:33:19.477Z,21.57
2022-08-20T02:35:51.041Z,21.53
2022-08-20T02:38:18.381Z,21.51
2022-08-20T02:40:46.617Z,21.52
2022-08-20T02:43:14.419Z,21.57
2022-08-20T02:45:43.699Z,21.61
2022-08-20T02:48:21.244Z,21.59
2022-08-20T02:51:01.329Z,21.57
2022-08-20T02:53:32.259Z,21.57
2022-08-20T02:56:00.305Z,21.58
2022-08-20T02:58:27.669Z,21.63
2022-08-20T03:00:56.650Z,21.63
2022-08-20T03:03:24.303Z,21.62
2022-08-20T03:05:56.907Z,21.56
2022-08-20T03:08:25.362Z,21.54
2022-08-20T03:10:53.500Z,21.55
2022-08-20T03:13:22.153Z,21.59
2022-08-20T03:15:58.851Z,21.58
2022-08-20T03:18:32.475Z,21.56
2022-08-20T03:21:00.091Z,21.63
2022-08-20T03:23:27.140Z,21.53
2022-08-20T03:25:54.042Z,21.51
2022-08-20T03:28:20.966Z,21.56
2022-08-20T03:30:47.899Z,21.60
2022-08-20T03:33:16.159Z,21.57
2022-08-20T03:35:43.415Z,21.56
2022-08-20T03:38:13.143Z,21.62
2022-08-20T03:40:41.118Z,21.61
2022-08-20T03:43:10.337Z,21.57
2022-08-20T03:45:41.869Z,21.58
2022-08-20T03:48:12.561Z,21.61
2022-08-20T03:50:41.769Z,21.66
2022-08-20T03:53:12.288Z,21.67
2022-08-20T03:55:46.295Z,21.65
2022-08-20T03:58:34.611Z,21.59
2022-08-20T04:01:02.711Z,21.55
2022-08-20T04:03:29.700Z,21.55
2022-08-20T04:05:56.477Z,21.59
2022-08-20T04:08:27.938Z,21.58
2022-08-20T04:10:59.694Z,21.58
2022-08-20T04:13:29.800Z,21.57
2022-08-20T04:16:00.868Z,21.56
2022-08-20T04:18:28.058Z,21.57
2022-08-20T04:20:55.389Z,21.60
2022-08-20T04:23:23.113Z,21.55
2022-08-20T04:25:50.151Z,21.46
2022-08-20T04:28:27.097Z,21.47
2022-08-20T04:30:57.317Z,21.51
2022-08-20T04:33:35.437Z,21.45
2022-08-20T04:36:05.586Z,21.42
2022-08-20T04:38:49.759Z,21.43
2022-08-20T04:41:23.648Z,21.47
2022-08-20T04:43:54.075Z,21.50
2022-08-20T04:46:25.408Z,21.43
2022-08-20T04:48:52.942Z,21.45
2022-08-20T04:51:22.913Z,21.47
2022-08-20T04:53:53.633Z,21.46
2022-08-20T04:56:24.406Z,21.47
2022-08-20T04:58:54.551Z,21.48
2022-08-20T05:01:23.713Z,21.47
2022-08-20T05:03:53.691Z,21.48
2022-08-20T05:06:24.639Z,21.45
2022-08-20T05:08:53.320Z,21.47
2022-08-20T05:11:35.979Z,21.44
2022-08-20T05:14:08.514Z,21.45
2022-08-20T05:16:38.431Z,21.44
2022-08-20T05:19:09.090Z,21.45
2022-08-20T05:21:36.406Z,21.43
2022-08-20T05:24:03.774Z,21.37
2022-08-20T05:26:30.717Z,21.36
2022-08-20T05:28:59.300Z,21.31
2022-08-20T05:31:32.204Z,21.35
2022-08-20T05:34:12.445Z,21.38
2022-08-20T05:36:43.457Z,21.41
2022-08-20T05:39:11.019Z,21.45
2022-08-20T05:41:39.830Z,21.49
2022-08-20T05:44:10.763Z,21.47
2022-08-20T05:46:40.751Z,21.49
2022-08-20T05:49:10.953Z,21.55
2022-08-20T05:51:37.961Z,21.60
2022-08-20T05:54:06.313Z,21.62
2022-08-20T05:56:34.125Z,21.64
2022-08-20T05:59:04.125Z,21.64
2022-08-20T06:01:34.250Z,21.60
2022-08-20T06:04:20.115Z,21.64
2022-08-20T06:06:47.798Z,21.74
2022-08-20T06:09:30.653Z,21.82
2022-08-20T06:12:01.653Z,21.85
2022-08-20T06:14:28.941Z,21.84
2022-08-20T06:17:02.408Z,21.75
2022-08-20T06:19:32.282Z,21.68
2022-08-20T06:22:00.590Z,21.70
2022-08-20T06:24:27.845Z,21.69
2022-08-20T06:27:01.324Z,21.66
2022-08-20T06:29:29.910Z,21.71
2022-08-20T06:31:57.168Z,21.69
2022-08-20T06:34:28.053Z,21.72
2022-08-20T06:36:57.238Z,21.77
2022-08-20T06:39:28.553Z,21.78
2022-08-20T06:41:58.512Z,21.85
2022-08-20T06:44:25.927Z,21.90
2022-08-20T06:46:52.933Z,21.93
2022-08-20T06:49:19.910Z,21.99
2022-08-20T06:51:46.686Z,22.09
2022-08-20T06:54:18.818Z,22.20
2022-08-20T06:56:45.841Z,22.29
2022-08-20T06:59:12.885Z,22.30
2022-08-20T07:01:39.902Z,22.46
2022-08-20T07:04:08.327Z,22.54
2022-08-20T07:06:35.159Z,22.57
2022-08-20T07:09:02.078Z,22.64
2022-08-20T07:11:29.164Z,22.58
2022-08-20T07:13:58.721Z,22.55
2022-08-20T07:16:26.635Z,22.59
2022-08-20T07:18:53.671Z,22.67
2022-08-20T07:21:20.656Z,22.71
2022-08-20T07:23:48.894Z,22.68
2022-08-20T07:26:17.061Z,22.70
2022-08-20T07:28:46.894Z,22.78
2022-08-20T07:31:35.028Z,22.83
2022-08-20T07:34:03.369Z,22.74
2022-08-20T07:36:31.196Z,22.69
2022-08-20T07:38:58.251Z,22.72
2022-08-20T07:41:25.274Z,22.74
2022-08-20T07:43:52.379Z,22.64
2022-08-20T07:46:21.459Z,22.60
2022-08-20T07:48:52.943Z,22.55
2022-08-20T07:51:22.260Z,22.55
2022-08-20T07:53:51.650Z,22.53
2022-08-20T07:56:24.209Z,22.49
2022-08-20T07:59:00.008Z,22.49
2022-08-20T08:01:31.266Z,22.52
2022-08-20T08:04:00.072Z,22.55
2022-08-20T08:06:33.789Z,22.64
2022-08-20T08:09:13.331Z,22.67
2022-08-20T08:11:57.436Z,22.71
2022-08-20T08:14:34.122Z,22.80
2022-08-20T08:17:04.886Z,22.77
2022-08-20T08:19:39.106Z,22.71
2022-08-20T08:22:12.375Z,22.73
2022-08-20T08:24:42.041Z,22.74
2022-08-20T08:27:24.121Z,22.59
2022-08-20T08:29:51.006Z,22.47
2022-08-20T08:32:17.969Z,22.47
2022-08-20T08:34:47.609Z,22.56
2022-08-20T08:37:14.479Z,22.63
2022-08-20T08:39:42.330Z,22.74
2022-08-20T08:42:42.628Z,22.88
2022-08-20T08:45:12.577Z,23.03
2022-08-20T08:47:41.191Z,23.14
2022-08-20T08:50:50.153Z,23.08
2022-08-20T08:53:26.225Z,22.90
2022-08-20T08:55:53.389Z,22.79
2022-08-20T08:58:20.330Z,22.67
2022-08-20T09:00:56.426Z,22.35
2022-08-20T09:03:36.261Z,22.00
2022-08-20T09:06:04.623Z,21.85
2022-08-20T09:08:49.797Z,21.85
2022-08-20T09:11:21.253Z,21.86
2022-08-20T09:13:52.195Z,21.90
2022-08-20T09:16:19.029Z,22.04
2022-08-20T09:18:49.906Z,22.15
2022-08-20T09:21:17.834Z,22.13
2022-08-20T09:23:45.085Z,22.05
2022-08-20T09:26:12.242Z,22.04
2022-08-20T09:28:39.262Z,22.15
2022-08-20T09:31:07.056Z,22.19
2022-08-20T09:33:34.984Z,22.14
2022-08-20T09:36:02.101Z,22.01
2022-08-20T09:38:29.103Z,21.87
2022-08-20T09:40:56.019Z,21.72
2022-08-20T09:43:29.022Z,21.72
2022-08-20T09:45:55.927Z,21.71
2022-08-20T09:48:31.934Z,21.53
2022-08-20T09:50:59.402Z,21.42
2022-08-20T09:53:26.333Z,21.39
2022-08-20T09:55:56.164Z,21.58
2022-08-20T09:58:53.167Z,21.82
2022-08-20T10:01:22.501Z,21.86
2022-08-20T10:03:51.017Z,21.84
2022-08-20T10:06:20.928Z,21.97
2022-08-20T10:08:49.864Z,22.10
2022-08-20T10:11:18.255Z,22.15
2022-08-20T10:13:45.714Z,22.52
2022-08-20T10:16:13.386Z,22.97
2022-08-20T10:18:40.683Z,23.24
2022-08-20T10:21:12.426Z,23.11
2022-08-20T10:23:39.469Z,23.18
2022-08-20T10:26:12.292Z,23.28
2022-08-20T10:28:40.109Z,23.57
2022-08-20T10:31:10.386Z,23.63
2022-08-20T10:33:38.721Z,23.60
2022-08-20T10:36:16.953Z,23.86
2022-08-20T10:38:45.365Z,24.56
2022-08-20T10:41:12.515Z,24.63
2022-08-20T10:43:39.338Z,24.44
2022-08-20T10:46:06.913Z,24.67
2022-08-20T10:48:34.044Z,25.30
2022-08-20T10:51:01.138Z,25.94
2022-08-20T10:53:28.112Z,26.01
2022-08-20T10:55:56.584Z,26.00
2022-08-20T10:58:25.161Z,26.06
2022-08-20T11:00:53.136Z,25.84
2022-08-20T11:03:23.450Z,25.60
2022-08-20T11:05:50.351Z,25.79
2022-08-20T11:08:28.630Z,26.07
2022-08-20T11:11:01.740Z,26.37
2022-08-20T11:13:31.300Z,26.33
2022-08-20T11:15:58.334Z,26.06
2022-08-20T11:18:25.194Z,25.73
2022-08-20T11:20:52.863Z,25.74
2022-08-20T11:23:19.905Z,25.61
2022-08-20T11:25:48.338Z,25.28
2022-08-20T11:28:16.338Z,24.94
2022-08-20T11:30:58.263Z,24.73
2022-08-20T11:33:25.118Z,24.39
2022-08-20T11:35:52.054Z,24.27
2022-08-20T11:38:19.650Z,24.23
2022-08-20T11:40:46.957Z,24.50
2022-08-20T11:43:16.347Z,24.73
2022-08-20T11:45:52.801Z,24.84
2022-08-20T11:48:20.151Z,24.80
2022-08-20T11:50:48.416Z,24.66
2022-08-20T11:53:15.304Z,24.73
2022-08-20T11:55:45.759Z,24.86
2022-08-20T11:58:12.885Z,25.02
2022-08-20T12:00:40.438Z,25.13
2022-08-20T12:03:09.733Z,25.04
2022-08-20T12:05:42.324Z,24.65
2022-08-20T12:08:10.065Z,24.65
2022-08-20T12:10:38.678Z,24.58
2022-08-20T12:13:07.572Z,24.46
2022-08-20T12:15:36.665Z,24.66
2022-08-20T12:18:08.352Z,24.84
2022-08-20T12:20:39.036Z,24.97
2022-08-20T12:23:05.955Z,25.20
2022-08-20T12:25:33.927Z,25.64
2022-08-20T12:28:00.872Z,26.41
2022-08-20T12:30:27.886Z,26.97
2022-08-20T12:32:54.779Z,27.25
2022-08-20T12:35:22.090Z,27.55
2022-08-20T12:37:49.280Z,27.79
2022-08-20T12:40:32.025Z,27.78
2022-08-20T12:43:02.982Z,27.45
2022-08-20T12:45:30.797Z,27.40
2022-08-20T12:48:15.980Z,27.59
2022-08-20T12:50:45.697Z,27.91
2022-08-20T12:53:12.979Z,29.02
2022-08-20T12:55:40.730Z,29.41
2022-08-20T12:58:10.821Z,29.39
2022-08-20T13:00:50.335Z,29.35
2022-08-20T13:03:20.575Z,30.21
2022-08-20T13:05:49.396Z,30.68
2022-08-20T13:08:19.103Z,31.38
2022-08-20T13:10:48.145Z,32.28
2022-08-20T13:13:20.525Z,32.08
2022-08-20T13:15:50.679Z,32.82
2022-08-20T13:18:18.603Z,32.96
2022-08-20T13:20:46.072Z,32.50
2022-08-20T13:23:13.153Z,32.38
2022-08-20T13:25:40.229Z,32.71
2022-08-20T13:28:07.149Z,32.91
2022-08-20T13:30:38.593Z,33.32
2022-08-20T13:33:05.514Z,33.64
2022-08-20T13:35:32.838Z,32.65
2022-08-20T13:37:59.762Z,32.23
2022-08-20T13:40:26.890Z,32.53
2022-08-20T13:42:53.929Z,33.50
2022-08-20T13:45:21.591Z,33.95
2022-08-20T13:47:54.642Z,34.37
2022-08-20T13:50:25.502Z,34.50
2022-08-20T13:52:53.024Z,33.66
2022-08-20T13:55:23.270Z,33.29
2022-08-20T13:57:51.377Z,33.50
2022-08-20T14:00:31.387Z,33.89
2022-08-20T14:03:04.822Z,34.16
2022-08-20T14:05:33.148Z,34.04
2022-08-20T14:08:17.131Z,33.99
2022-08-20T14:10:45.197Z,33.91
2022-08-20T14:13:15.810Z,33.87
2022-08-20T14:15:44.177Z,33.63
2022-08-20T14:18:11.860Z,33.92
2022-08-20T14:20:39.014Z,34.13
2022-08-20T14:23:06.272Z,34.14
2022-08-20T14:25:34.629Z,34.00
2022-08-20T14:28:18.288Z,33.24
2022-08-20T14:30:52.953Z,32.66
2022-08-20T14:33:22.546Z,33.12
2022-08-20T14:35:49.665Z,33.44
2022-08-20T14:38:16.514Z,32.93
2022-08-20T14:40:43.328Z,32.28
2022-08-20T14:43:10.240Z,32.84
2022-08-20T14:45:37.179Z,32.14
2022-08-20T14:48:09.223Z,32.08
2022-08-20T14:50:36.440Z,32.12
2022-08-20T14:53:04.472Z,31.76
2022-08-20T14:55:37.437Z,31.61
2022-08-20T14:58:13.211Z,31.91
2022-08-20T15:00:40.826Z,32.16
2022-08-20T15:03:07.905Z,32.32
2022-08-20T15:05:39.510Z,32.28
2022-08-20T15:08:10.590Z,32.12
2022-08-20T15:10:39.541Z,32.07
2022-08-20T15:13:06.836Z,32.09
2022-08-20T15:15:33.898Z,31.84
2022-08-20T15:18:01.202Z,31.42
2022-08-20T15:20:33.385Z,30.78
2022-08-20T15:23:01.111Z,30.32
2022-08-20T15:25:36.893Z,29.66
2022-08-20T15:28:09.811Z,29.19
2022-08-20T15:30:40.934Z,28.74
2022-08-20T15:33:10.533Z,28.44
2022-08-20T15:35:38.004Z,28.30
2022-08-20T15:38:05.064Z,28.21
2022-08-20T15:40:33.391Z,28.07
2022-08-20T15:43:03.242Z,28.01
2022-08-20T15:45:31.901Z,27.88
2022-08-20T15:48:20.179Z,27.81
2022-08-20T15:51:15.138Z,27.70
2022-08-20T15:53:53.851Z,27.70
2022-08-20T15:57:20.413Z,27.63
2022-08-20T16:00:20.670Z,27.61
2022-08-20T16:03:55.248Z,27.44
2022-08-20T16:06:31.983Z,27.38
2022-08-20T16:09:26.102Z,27.25
2022-08-20T16:12:16.570Z,27.11
2022-08-20T16:14:48.748Z,27.18
2022-08-20T16:17:23.690Z,27.15
2022-08-20T16:20:08.163Z,27.05
2022-08-20T16:22:43.268Z,27.07
2022-08-20T16:25:13.518Z,27.00
2022-08-20T16:28:40.860Z,26.91
2022-08-20T16:31:14.546Z,26.89
2022-08-20T16:34:33.440Z,26.91
2022-08-20T16:37:41.339Z,26.83
2022-08-20T16:40:44.550Z,26.71
2022-08-20T16:43:33.866Z,26.78
2022-08-20T16:46:12.217Z,26.77
2022-08-20T16:48:50.619Z,26.74
2022-08-20T16:51:25.809Z,26.69
2022-08-20T16:53:52.630Z,26.49
2022-08-20T16:56:47.869Z,26.45
2022-08-20T16:59:27.214Z,26.48
2022-08-20T17:02:08.300Z,26.45
2022-08-20T17:04:59.326Z,26.35
2022-08-20T17:07:43.540Z,26.29
2022-08-20T17:10:27.184Z,26.22
2022-08-20T17:13:19.129Z,26.10
2022-08-20T17:15:56.359Z,25.98
2022-08-20T17:18:47.009Z,26.04
2022-08-20T17:21:38.105Z,26.02
2022-08-20T17:24:30.213Z,26.04
2022-08-20T17:27:14.767Z,26.02
2022-08-20T17:29:53.270Z,26.01
2022-08-20T17:32:28.847Z,25.92
2022-08-20T17:35:00.158Z,25.89
2022-08-20T17:37:36.221Z,25.89
2022-08-20T17:40:24.430Z,25.80
2022-08-20T17:43:03.057Z,25.75
2022-08-20T17:45:43.835Z,25.78
2022-08-20T17:48:38.813Z,25.72
2022-08-20T17:51:15.133Z,25.71
2022-08-20T17:53:52.217Z,25.67
2022-08-20T17:56:31.510Z,25.60
2022-08-20T17:59:47.715Z,25.58
2022-08-20T18:02:17.297Z,25.44
2022-08-20T18:04:47.152Z,25.36
2022-08-20T18:07:24.373Z,25.34
2022-08-20T18:10:05.223Z,25.30
2022-08-20T18:12:56.451Z,25.27
2022-08-20T18:15:31.187Z,25.25
2022-08-20T18:18:26.013Z,25.21
2022-08-20T18:21:06.425Z,25.17
2022-08-20T18:24:14.793Z,25.13
2022-08-20T18:27:15.276Z,25.05
2022-08-20T18:29:46.664Z,24.92
2022-08-20T18:32:38.252Z,24.73
2022-08-20T18:35:33.696Z,24.49
2022-08-20T18:38:21.834Z,24.33
2022-08-20T18:40:53.224Z,24.13
2022-08-20T18:43:30.460Z,24.01
2022-08-20T18:46:12.097Z,24.01
2022-08-20T18:48:53.837Z,23.96
2022-08-20T18:51:42.453Z,23.84
2022-08-20T18:54:32.970Z,23.66
2022-08-20T18:57:20.569Z,23.57
2022-08-20T18:59:59.950Z,23.55
2022-08-20T19:02:33.275Z,23.47
2022-08-20T19:05:12.196Z,23.36
2022-08-20T19:07:51.197Z,23.28
2022-08-20T19:10:43.472Z,23.18
2022-08-20T19:13:50.979Z,23.16
2022-08-20T19:16:42.235Z,23.06
2022-08-20T19:19:27.524Z,22.94
2022-08-20T19:21:57.224Z,22.96
2022-08-20T19:24:31.452Z,22.85
2022-08-20T19:27:04.710Z,22.68
2022-08-20T19:29:40.149Z,22.54
2022-08-20T19:32:17.969Z,22.52
2022-08-20T19:35:02.489Z,22.52
2022-08-20T19:37:44.445Z,22.45
2022-08-20T19:40:39.329Z,22.41
2022-08-20T19:43:15.839Z,22.32
2022-08-20T19:45:54.268Z,22.19
2022-08-20T19:48:54.809Z,22.09
2022-08-20T19:51:47.947Z,22.09
2022-08-20T19:54:22.106Z,21.95
2022-08-20T19:56:49.149Z,21.85
2022-08-20T19:59:22.634Z,21.76
2022-08-20T20:02:02.928Z,21.67
2022-08-20T20:04:54.936Z,21.45
2022-08-20T20:07:48.146Z,21.42
2022-08-20T20:10:35.620Z,21.56
2022-08-20T20:13:18.071Z,21.61
2022-08-20T20:15:46.121Z,21.60
2022-08-20T20:18:14.116Z,21.60
2022-08-20T20:20:57.466Z,21.56
2022-08-20T20:23:45.673Z,21.57
2022-08-20T20:26:20.149Z,21.53
2022-08-20T20:28:53.488Z,21.51
2022-08-20T20:31:36.579Z,21.38
2022-08-20T20:34:14.689Z,21.38
2022-08-20T20:36:46.379Z,21.35
2022-08-20T20:39:39.916Z,21.26
2022-08-20T20:42:32.818Z,21.13
2022-08-20T20:45:00.215Z,21.06
2022-08-20T20:47:32.332Z,21.01
2022-08-20T20:50:05.193Z,20.92
2022-08-20T20:52:36.264Z,20.84
2022-08-20T20:55:12.385Z,20.75
2022-08-20T20:57:39.449Z,20.67
2022-08-20T21:00:14.830Z,20.66
2022-08-20T21:02:43.292Z,20.59
2022-08-20T21:05:12.620Z,20.59
2022-08-20T21:07:51.822Z,20.54
2022-08-20T21:10:23.058Z,20.54
2022-08-20T21:12:52.998Z,20.55
2022-08-20T21:15:23.143Z,20.50
2022-08-20T21:17:50.536Z,20.45
2022-08-20T21:20:18.380Z,20.52
2022-08-20T21:22:45.378Z,20.57
2022-08-20T21:25:13.077Z,20.52
2022-08-20T21:27:47.044Z,20.48
2022-08-20T21:30:16.365Z,20.39
2022-08-20T21:32:43.338Z,20.36
2022-08-20T21:35:11.379Z,20.42
2022-08-20T21:37:38.740Z,20.38
2022-08-20T21:40:10.075Z,20.37
2022-08-20T21:42:39.690Z,20.29
2022-08-20T21:45:11.491Z,20.11
2022-08-20T21:47:38.305Z,20.05
2022-08-20T21:50:07.888Z,20.01
2022-08-20T21:52:35.843Z,19.96
2022-08-20T21:55:02.674Z,20.01
2022-08-20T21:57:33.242Z,19.99
2022-08-20T22:00:02.366Z,19.86
2022-08-20T22:02:30.444Z,19.89
2022-08-20T22:04:57.310Z,19.86
2022-08-20T22:07:24.198Z,19.84
2022-08-20T22:09:51.078Z,19.81
2022-08-20T22:12:24.030Z,19.70
2022-08-20T22:14:51.165Z,19.57
2022-08-20T22:17:19.103Z,19.49
2022-08-20T22:19:46.005Z,19.47
2022-08-20T22:22:15.572Z,19.50
2022-08-20T22:24:42.492Z,19.46
2022-08-20T22:27:09.404Z,19.43
2022-08-20T22:29:36.351Z,19.44
2022-08-20T22:32:04.039Z,19.42
2022-08-20T22:34:36.157Z,19.36
2022-08-20T22:37:03.859Z,19.35
2022-08-20T22:39:30.888Z,19.31
2022-08-20T22:41:57.749Z,19.16
2022-08-20T22:44:24.592Z,19.10
2022-08-20T22:46:58.992Z,19.05
2022-08-20T22:49:31.796Z,19.06
2022-08-20T22:51:58.901Z,19.11
2022-08-20T22:54:26.724Z,19.19
2022-08-20T22:56:54.921Z,19.20
2022-08-20T22:59:25.314Z,19.17
2022-08-20T23:01:53.261Z,19.11
2022-08-20T23:04:26.512Z,19.00
2022-08-20T23:06:55.090Z,19.07
2022-08-20T23:09:22.579Z,19.18
2022-08-20T23:11:50.167Z,19.12
2022-08-20T23:14:17.552Z,19.07
2022-08-20T23:16:49.045Z,19.07
2022-08-20T23:19:22.330Z,19.03
2022-08-20T23:21:51.255Z,18.82
2022-08-20T23:24:18.893Z,18.79
2022-08-20T23:26:52.774Z,18.75
2022-08-20T23:29:22.566Z,18.60
2022-08-20T23:31:56.795Z,18.48
2022-08-20T23:34:25.324Z,18.49
2022-08-20T23:36:53.950Z,18.59
2022-08-20T23:39:21.309Z,18.52
2022-08-20T23:41:48.432Z,18.39
2022-08-20T23:44:26.244Z,18.22
2022-08-20T23:47:01.923Z,18.17
2022-08-20T23:49:33.138Z,18.31
2022-08-20T23:52:00.974Z,18.40
2022-08-20T23:54:30.469Z,18.37
2022-08-20T23:56:57.661Z,18.24
2022-08-20T23:59:25.587Z,18.19
